Due West, South Carolina
Current Conditions -  °F | °C
As of 4:56 PM on Monday 24 Nov 2014 (Local Time) from KGRD Reporting Station
Clear Clear  
Wind Chill: 71°   Ceiling: Unl
Heat Index: 71°   Visibility: 10mi
Dew Point: 59°   Wind: 12mph
Humidity: 66%   Direction: 190°S
Pressure: 29.81"   Gusts: NA
Location:  34.33°N, 82.39°W
Report Text: KGRD 242156Z AUTO 19010KT 10SM CLR 22/15 A2981 RMK AO2 SLP090 T02170150
Loading
Personal Weather Stations






























Interactive Weather Map New forecast layout! Learn more

10-Day Weather Forecast

Advertisements
Track Severe Weather on mobile